Time;durP1;ratioP1;P1;durP2;ratioP2;P2;SDS_P1;SDS_P2;PMS_P1;PMS_P2;Temp;Humidity;BMP_temperature;BMP_pressure;BME280_temperature;BME280_humidity;BME280_pressure;Samples;Min_cycle;Max_cycle;Signal;HPM_P1;HPM_P2
2023/04/08 00:01:16;;;;;;;;;;;;;;;14.00;40.32;101023.59;4973837;27;99012;-65
2023/04/08 00:03:42;;;;;;;;;;;;;;;13.99;39.87;101013.03;4971222;27;98556;-64
2023/04/08 00:06:08;;;;;;;;;;;;;;;13.99;40.07;101024.69;4973576;27;122810;-66
2023/04/08 00:08:34;;;;;;;;;;;;;;;13.99;40.14;101024.69;4968362;27;127228;-67
2023/04/08 00:11:00;;;;;;;;;;;;;;;13.99;40.22;101021.19;4971245;27;98505;-64
2023/04/08 00:13:26;;;;;;;;;;;;;;;13.97;40.24;101026.84;4974305;27;98200;-66
2023/04/08 00:15:52;;;;;;;;;;;;;;;13.96;40.31;101011.69;4971199;27;98183;-66
2023/04/08 00:18:18;;;;;;;;;;;;;;;13.97;40.33;101021.44;4969200;27;127420;-66
2023/04/08 00:20:44;;;;;;;;;;;;;;;13.96;40.03;101011.69;4972117;27;121954;-67
2023/04/08 00:23:10;;;;;;;;;;;;;;;13.96;40.25;101019.00;4969676;27;98442;-64
2023/04/08 00:25:36;;;;;;;;;;;;;;;13.95;40.00;101007.38;4972945;27;120492;-64
2023/04/08 00:28:02;;;;;;;;;;;;;;;13.95;39.95;101017.38;4970874;27;128602;-66
2023/04/08 00:30:28;;;;;;;;;;;;;;;13.94;40.40;101007.63;4968716;27;100807;-66
2023/04/08 00:32:54;;;;;;;;;;;;;;;13.93;40.04;101014.13;4970162;27;127483;-64
2023/04/08 00:35:20;;;;;;;;;;;;;;;13.93;40.42;101009.53;4969748;27;124478;-64
2023/04/08 00:37:46;;;;;;;;;;;;;;;13.92;40.06;101016.03;4969899;27;125031;-66
2023/04/08 00:40:12;;;;;;;;;;;;;;;13.93;40.18;101014.13;4969696;27;99250;-66
2023/04/08 00:42:38;;;;;;;;;;;;;;;13.92;40.28;101018.75;4971656;27;97942;-64
2023/04/08 00:45:05;;;;;;;;;;;;;;;13.91;40.45;101019.84;4972581;27;99832;-64
2023/04/08 00:47:31;;;;;;;;;;;;;;;13.91;40.10;101019.00;4972323;27;98982;-66
2023/04/08 00:49:57;;;;;;;;;;;;;;;13.90;40.38;101012.78;4971268;27;115114;-63
2023/04/08 00:52:22;;;;;;;;;;;;;;;13.90;40.12;101017.41;4970727;27;127577;-66
2023/04/08 00:54:48;;;;;;;;;;;;;;;13.89;40.15;101008.47;4950843;28;121779;-66
2023/04/08 00:57:14;;;;;;;;;;;;;;;13.90;39.99;101020.91;4968977;27;127943;-64
2023/04/08 00:59:40;;;;;;;;;;;;;;;13.89;40.00;101010.34;4971262;27;98839;-64
2023/04/08 01:02:32;;;;;;;;;;;;;;;13.89;40.07;100999.53;4952169;28;124102;-64
2023/04/08 01:05:04;;;;;;;;;;;;;;;13.88;39.98;101003.31;4948527;28;121324;-63
2023/04/08 01:07:37;;;;;;;;;;;;;;;13.87;40.10;101002.53;4958932;27;98868;-68
2023/04/08 01:10:11;;;;;;;;;;;;;;;13.87;40.24;100998.97;4932996;27;99111;-67
2023/04/08 01:12:40;;;;;;;;;;;;;;;13.87;40.18;100999.81;4958783;27;98261;-63
2023/04/08 01:15:07;;;;;;;;;;;;;;;13.85;40.17;101009.28;4959941;28;116780;-66
2023/04/08 01:17:33;;;;;;;;;;;;;;;13.85;40.19;101004.69;4954288;27;126909;-66
2023/04/08 01:20:00;;;;;;;;;;;;;;;13.86;40.18;101013.63;4954039;28;128454;-63
2023/04/08 01:22:41;;;;;;;;;;;;;;;13.86;40.45;101016.31;4969535;27;98423;-66
2023/04/08 01:25:29;;;;;;;;;;;;;;;13.85;39.93;101017.41;4958693;27;98152;-63
2023/04/08 01:27:57;;;;;;;;;;;;;;;13.85;40.23;101020.94;4959856;27;98147;-63
2023/04/08 01:30:24;;;;;;;;;;;;;;;13.84;40.04;101021.22;4955569;28;98969;-64
2023/04/08 01:32:54;;;;;;;;;;;;;;;13.83;40.34;101017.69;4957166;28;98055;-64
2023/04/08 01:35:20;;;;;;;;;;;;;;;13.83;40.13;101017.69;4969516;27;98109;-63
2023/04/08 01:37:46;;;;;;;;;;;;;;;13.83;40.02;101012.25;4969486;27;111878;-66
2023/04/08 01:40:12;;;;;;;;;;;;;;;13.82;40.48;101016.06;4948977;27;127611;-63
2023/04/08 01:42:38;;;;;;;;;;;;;;;13.82;40.09;101013.34;4971526;27;99554;-67
2023/04/08 01:45:04;;;;;;;;;;;;;;;13.82;40.38;101015.25;4969007;27;122726;-63
2023/04/08 01:47:30;;;;;;;;;;;;;;;13.81;40.17;101013.63;4970759;27;125353;-64
2023/04/08 01:49:56;;;;;;;;;;;;;;;13.81;40.50;101013.63;4932606;28;126920;-64
2023/04/08 01:52:22;;;;;;;;;;;;;;;13.81;40.52;101016.34;4952554;27;130307;-63
2023/04/08 01:54:48;;;;;;;;;;;;;;;13.81;40.51;101019.88;4967485;27;121806;-63
2023/04/08 01:57:16;;;;;;;;;;;;;;;13.80;40.11;101012.03;4967902;27;127877;-67
2023/04/08 01:59:42;;;;;;;;;;;;;;;13.80;40.07;101014.72;4971501;27;125297;-64
2023/04/08 02:02:08;;;;;;;;;;;;;;;13.80;40.07;101014.72;4952104;28;126908;-64
2023/04/08 02:04:34;;;;;;;;;;;;;;;13.79;40.23;101013.09;4969671;27;97905;-64
2023/04/08 02:07:01;;;;;;;;;;;;;;;13.79;40.29;101015.78;4966664;27;128995;-63
2023/04/08 02:09:27;;;;;;;;;;;;;;;13.78;40.42;101008.75;4971522;27;98516;-64
2023/04/08 02:11:53;;;;;;;;;;;;;;;13.78;40.30;101015.00;4967558;27;127555;-66
2023/04/08 02:14:19;;;;;;;;;;;;;;;13.77;40.58;101012.56;4950428;28;98181;-68
2023/04/08 02:16:52;;;;;;;;;;;;;;;13.77;40.15;101018.00;4952869;27;116000;-66
2023/04/08 02:19:30;;;;;;;;;;;;;;;13.78;40.14;101016.88;4954493;27;98449;-64
2023/04/08 02:22:01;;;;;;;;;;;;;;;13.75;40.17;101024.50;4959015;28;114406;-66
2023/04/08 02:24:27;;;;;;;;;;;;;;;13.74;40.18;101020.16;4958311;27;98135;-66
2023/04/08 02:26:54;;;;;;;;;;;;;;;13.74;40.03;101022.03;4964332;28;112519;-66
2023/04/08 02:29:20;;;;;;;;;;;;;;;13.74;40.23;101019.34;4938681;28;98420;-64
2023/04/08 02:31:46;;;;;;;;;;;;;;;13.73;40.53;101023.94;4958968;27;98064;-67
2023/04/08 02:34:12;;;;;;;;;;;;;;;13.73;40.56;101023.13;4958147;27;107746;-66
2023/04/08 02:36:39;;;;;;;;;;;;;;;13.72;40.54;101025.03;4944359;27;98645;-68
2023/04/08 02:39:05;;;;;;;;;;;;;;;13.72;40.56;101029.66;4972860;27;99396;-66
2023/04/08 02:41:31;;;;;;;;;;;;;;;13.72;40.22;101030.47;4973151;27;127462;-68
2023/04/08 02:43:57;;;;;;;;;;;;;;;13.70;40.41;101032.63;4974639;27;122042;-64
2023/04/08 02:46:23;;;;;;;;;;;;;;;13.71;40.41;101031.53;4976425;27;104798;-64
2023/04/08 02:48:49;;;;;;;;;;;;;;;13.71;40.22;101025.28;4976816;27;104598;-64
2023/04/08 02:51:15;;;;;;;;;;;;;;;13.70;40.12;101027.19;4973832;27;129468;-64
2023/04/08 02:53:41;;;;;;;;;;;;;;;13.71;40.54;101028.00;4974314;27;121839;-67
2023/04/08 02:56:10;;;;;;;;;;;;;;;13.71;40.29;101036.13;4974624;27;126779;-66
2023/04/08 02:58:36;;;;;;;;;;;;;;;13.70;40.21;101032.63;4974413;27;99031;-64
2023/04/08 03:01:02;;;;;;;;;;;;;;;13.70;40.35;101038.03;4975705;27;128399;-67
2023/04/08 03:03:28;;;;;;;;;;;;;;;13.70;40.24;101042.66;4976183;27;97926;-64
2023/04/08 03:05:55;;;;;;;;;;;;;;;13.70;40.64;101042.66;4977133;27;99250;-64
2023/04/08 03:08:21;;;;;;;;;;;;;;;13.70;40.57;101039.94;4975284;27;99029;-64
2023/04/08 03:10:48;;;;;;;;;;;;;;;13.69;40.46;101038.31;4955905;27;102084;-64
2023/04/08 03:13:14;;;;;;;;;;;;;;;13.69;40.34;101044.53;4976516;27;98043;-64
2023/04/08 03:15:40;;;;;;;;;;;;;;;13.70;40.47;101042.66;4974469;27;113944;-66
2023/04/08 03:18:06;;;;;;;;;;;;;;;13.68;40.32;101042.94;4975382;27;126943;-64
2023/04/08 03:20:32;;;;;;;;;;;;;;;13.69;40.61;101043.75;4973510;27;97850;-68
2023/04/08 03:22:57;;;;;;;;;;;;;;;13.69;40.16;101049.16;4973831;27;122829;-64
2023/04/08 03:25:23;;;;;;;;;;;;;;;13.69;40.41;101047.25;4973968;27;127959;-66
2023/04/08 03:27:50;;;;;;;;;;;;;;;13.68;40.37;101047.53;4976405;27;98201;-66
2023/04/08 03:30:15;;;;;;;;;;;;;;;13.68;40.29;101042.13;4975777;27;98177;-66
2023/04/08 03:32:41;;;;;;;;;;;;;;;13.68;40.65;101040.22;4952601;28;124753;-64
2023/04/08 03:35:08;;;;;;;;;;;;;;;13.67;40.30;101041.28;4953652;28;127483;-64
2023/04/08 03:37:33;;;;;;;;;;;;;;;13.67;40.59;101035.88;4973238;27;113761;-64
2023/04/08 03:39:59;;;;;;;;;;;;;;;13.67;40.27;101038.56;4970539;27;127658;-64
2023/04/08 03:42:26;;;;;;;;;;;;;;;13.65;40.57;101034.53;4972644;27;122677;-66
2023/04/08 03:44:51;;;;;;;;;;;;;;;13.66;40.56;101042.38;4973585;27;99956;-65
2023/04/08 03:47:17;;;;;;;;;;;;;;;13.67;40.69;101040.47;4972080;27;128041;-66
2023/04/08 03:49:43;;;;;;;;;;;;;;;13.67;40.22;101040.47;4936512;27;126745;-66
2023/04/08 03:52:09;;;;;;;;;;;;;;;13.66;40.64;101047.00;4972571;27;121833;-64
2023/04/08 03:54:35;;;;;;;;;;;;;;;13.66;40.64;101038.88;4972064;27;98883;-64
2023/04/08 03:57:01;;;;;;;;;;;;;;;13.66;40.59;101045.09;4973473;27;119770;-63
2023/04/08 03:59:27;;;;;;;;;;;;;;;13.65;40.30;101042.66;4971390;27;102279;-66
2023/04/08 04:01:53;;;;;;;;;;;;;;;13.65;40.41;101048.88;4972481;27;98081;-67
2023/04/08 04:04:19;;;;;;;;;;;;;;;13.65;40.68;101048.88;4970367;27;98703;-64
2023/04/08 04:06:45;;;;;;;;;;;;;;;13.66;40.66;101041.56;4970123;27;118934;-64
2023/04/08 04:09:11;;;;;;;;;;;;;;;13.65;40.70;101043.47;4969376;27;126343;-63
2023/04/08 04:11:37;;;;;;;;;;;;;;;13.66;40.40;101061.34;4959976;28;99536;-64
2023/04/08 04:14:03;;;;;;;;;;;;;;;13.64;40.46;101058.09;4936260;28;128743;-64
2023/04/08 04:16:29;;;;;;;;;;;;;;;13.65;40.76;101064.34;4970616;27;128250;-68
2023/04/08 04:18:55;;;;;;;;;;;;;;;13.64;40.51;101066.22;4972063;27;97837;-64
2023/04/08 04:21:21;;;;;;;;;;;;;;;13.64;40.46;101071.66;4969047;27;122541;-64
2023/04/08 04:23:46;;;;;;;;;;;;;;;13.66;40.63;101066.75;4969591;27;127991;-64
2023/04/08 04:26:12;;;;;;;;;;;;;;;13.66;40.50;101068.66;4970895;27;127882;-66
2023/04/08 04:28:39;;;;;;;;;;;;;;;13.64;40.38;101074.38;4969909;27;126785;-64
2023/04/08 04:31:04;;;;;;;;;;;;;;;13.65;40.42;101075.16;4964087;27;100665;-66
2023/04/08 04:33:30;;;;;;;;;;;;;;;13.66;40.37;101080.31;4954473;27;127137;-66
2023/04/08 04:35:56;;;;;;;;;;;;;;;13.65;40.45;101086.81;4968703;27;126817;-66
2023/04/08 04:38:22;;;;;;;;;;;;;;;13.65;40.44;101081.41;4969970;27;126068;-64
2023/04/08 04:40:48;;;;;;;;;;;;;;;13.65;40.79;101080.59;4967304;27;123734;-67
2023/04/08 04:43:14;;;;;;;;;;;;;;;13.65;40.51;101086.00;4970049;27;127279;-66
2023/04/08 04:45:40;;;;;;;;;;;;;;;13.65;40.53;101086.81;4954260;27;127879;-66
2023/04/08 04:48:09;;;;;;;;;;;;;;;13.65;40.59;101089.53;4972332;27;98018;-66
2023/04/08 04:50:35;;;;;;;;;;;;;;;13.66;40.36;101093.84;4972005;27;98158;-64
2023/04/08 04:53:01;;;;;;;;;;;;;;;13.67;40.33;101089.25;4970804;27;128063;-66
2023/04/08 04:55:26;;;;;;;;;;;;;;;13.68;40.61;101099.81;4970883;27;98102;-64
2023/04/08 04:57:52;;;;;;;;;;;;;;;13.69;40.50;101096.03;4970596;27;126840;-64
2023/04/08 05:00:18;;;;;;;;;;;;;;;13.70;40.78;101092.22;4970955;27;121453;-64
2023/04/08 05:02:45;;;;;;;;;;;;;;;13.70;40.52;101100.34;4967592;27;125393;-64
2023/04/08 05:05:10;;;;;;;;;;;;;;;13.72;40.39;101095.47;4970268;27;98971;-64
2023/04/08 05:07:37;;;;;;;;;;;;;;;13.72;40.66;101100.91;4968025;27;114971;-64
2023/04/08 05:10:03;;;;;;;;;;;;;;;13.74;40.45;101098.72;4969432;27;120548;-67
2023/04/08 05:12:30;;;;;;;;;;;;;;;13.77;40.67;101107.41;4969236;27;98445;-64
2023/04/08 05:14:58;;;;;;;;;;;;;;;13.79;40.57;101107.91;4973058;27;98496;-64
2023/04/08 05:17:24;;;;;;;;;;;;;;;13.79;40.40;101116.03;4968746;27;98050;-67
2023/04/08 05:19:52;;;;;;;;;;;;;;;13.82;40.68;101112.81;4971077;27;97897;-66
2023/04/08 05:22:18;;;;;;;;;;;;;;;13.79;40.37;101111.44;4954186;27;98572;-67
2023/04/08 05:24:43;;;;;;;;;;;;;;;13.81;40.31;101114.69;4968441;27;127274;-66
2023/04/08 05:27:09;;;;;;;;;;;;;;;13.81;40.79;101117.41;4970084;27;128409;-66
2023/04/08 05:29:35;;;;;;;;;;;;;;;13.84;40.40;101118.78;4969474;27;98943;-64
2023/04/08 05:32:01;;;;;;;;;;;;;;;13.84;40.39;101122.28;4970556;27;128059;-64
2023/04/08 05:34:27;;;;;;;;;;;;;;;13.85;40.46;101128.53;4970578;27;128657;-65
2023/04/08 05:36:53;;;;;;;;;;;;;;;13.87;40.62;101124.47;4969338;27;127630;-64
2023/04/08 05:39:19;;;;;;;;;;;;;;;13.92;40.73;101134.47;4970966;27;98148;-66
2023/04/08 05:41:45;;;;;;;;;;;;;;;13.96;40.37;101138.25;4968472;27;99364;-64
2023/04/08 05:44:12;;;;;;;;;;;;;;;14.00;40.53;101126.59;4969947;27;98351;-64
2023/04/08 05:46:38;;;;;;;;;;;;;;;14.08;40.56;101132.56;4970948;27;98353;-64
2023/04/08 05:49:04;;;;;;;;;;;;;;;14.15;40.17;101139.31;4970950;27;122516;-65
2023/04/08 05:51:30;;;;;;;;;;;;;;;14.19;40.20;101145.00;4967981;27;99324;-64
2023/04/08 05:53:56;;;;;;;;;;;;;;;14.25;40.17;101147.41;4969410;27;126993;-66
2023/04/08 05:56:22;;;;;;;;;;;;;;;14.31;40.55;101147.41;4950957;28;128446;-64
2023/04/08 05:58:48;;;;;;;;;;;;;;;14.35;40.11;101143.88;4968967;27;122278;-64
2023/04/08 06:01:14;;;;;;;;;;;;;;;14.41;40.07;101141.94;4970721;27;98909;-66
2023/04/08 06:03:40;;;;;;;;;;;;;;;14.45;40.18;101146.53;4968614;27;98785;-64
2023/04/08 06:06:10;;;;;;;;;;;;;;;14.45;40.47;101149.25;4968328;27;126532;-64
2023/04/08 06:08:36;;;;;;;;;;;;;;;14.47;40.10;101146.25;4970032;27;97995;-64
2023/04/08 06:11:05;;;;;;;;;;;;;;;14.48;40.15;101159.53;4950979;28;128093;-66
2023/04/08 06:13:31;;;;;;;;;;;;;;;14.53;40.31;101156.03;4968894;27;98615;-64
2023/04/08 06:15:57;;;;;;;;;;;;;;;14.57;40.46;101161.72;4968196;27;98837;-66
2023/04/08 06:18:23;;;;;;;;;;;;;;;14.61;40.44;101166.31;4956334;28;123865;-66
2023/04/08 06:20:49;;;;;;;;;;;;;;;14.64;40.44;101168.47;4966925;27;122763;-65
2023/04/08 06:23:15;;;;;;;;;;;;;;;14.70;40.13;101163.84;4966809;27;98387;-65
2023/04/08 06:25:41;;;;;;;;;;;;;;;14.76;40.38;101178.19;4966831;27;101160;-64
2023/04/08 06:28:07;;;;;;;;;;;;;;;14.76;40.35;101179.00;4967398;27;122511;-67
2023/04/08 06:30:33;;;;;;;;;;;;;;;14.78;40.43;101184.97;4965425;27;127036;-66
2023/04/08 06:32:59;;;;;;;;;;;;;;;14.76;40.31;101186.34;4953122;28;118376;-65
2023/04/08 06:35:25;;;;;;;;;;;;;;;14.76;40.47;101180.91;4966246;27;127252;-65
2023/04/08 06:37:51;;;;;;;;;;;;;;;14.75;40.50;101187.44;4954333;27;99251;-68
2023/04/08 06:40:16;;;;;;;;;;;;;;;14.77;40.29;101196.09;4962163;27;128068;-65
2023/04/08 06:42:43;;;;;;;;;;;;;;;14.79;40.42;101205.59;4959405;27;128029;-65
2023/04/08 06:45:10;;;;;;;;;;;;;;;14.82;40.20;101206.94;4965044;27;98448;-65
2023/04/08 06:47:35;;;;;;;;;;;;;;;14.87;40.17;101205.00;4953298;27;99506;-66
2023/04/08 06:50:01;;;;;;;;;;;;;;;14.92;40.30;101210.41;4965908;27;127660;-65
2023/04/08 06:52:27;;;;;;;;;;;;;;;15.01;40.28;101213.34;4963702;27;116318;-66
2023/04/08 06:54:53;;;;;;;;;;;;;;;15.23;39.71;101211.06;4966337;27;128037;-65
2023/04/08 06:57:19;;;;;;;;;;;;;;;15.39;40.03;101219.94;4964763;27;103311;-68
2023/04/08 06:59:45;;;;;;;;;;;;;;;15.47;39.77;101221.25;4964767;27;126953;-65
2023/04/08 07:02:11;;;;;;;;;;;;;;;15.80;39.61;101224.28;4963896;27;98840;-64
2023/04/08 07:04:37;;;;;;;;;;;;;;;16.09;39.20;101225.16;4964031;27;126732;-65
2023/04/08 07:07:03;;;;;;;;;;;;;;;16.30;39.41;101228.47;4967013;27;124456;-65
2023/04/08 07:09:29;;;;;;;;;;;;;;;16.33;39.54;101232.53;4965194;27;128011;-68
2023/04/08 07:11:56;;;;;;;;;;;;;;;16.21;39.70;101235.66;4970260;27;126843;-68
2023/04/08 07:14:22;;;;;;;;;;;;;;;16.09;39.79;101233.31;4952242;28;98195;-66
2023/04/08 07:16:48;;;;;;;;;;;;;;;16.06;39.92;101246.66;4967976;27;123025;-68
2023/04/08 07:19:14;;;;;;;;;;;;;;;16.07;39.93;101249.13;4955259;27;128308;-65
2023/04/08 07:21:40;;;;;;;;;;;;;;;16.25;39.82;101252.22;4969146;27;98253;-68
2023/04/08 07:24:06;;;;;;;;;;;;;;;16.42;39.65;101244.41;4967264;27;99009;-68
2023/04/08 07:26:32;;;;;;;;;;;;;;;16.55;39.43;101246.47;4968679;27;121952;-65
2023/04/08 07:28:58;;;;;;;;;;;;;;;16.71;39.41;101259.91;4968269;27;128700;-65
2023/04/08 07:31:24;;;;;;;;;;;;;;;16.83;39.27;101252.19;4951837;27;128197;-66
2023/04/08 07:33:50;;;;;;;;;;;;;;;16.93;39.32;101254.78;4949166;27;98069;-68
2023/04/08 07:36:17;;;;;;;;;;;;;;;17.01;39.30;101248.69;4951203;28;98702;-65
2023/04/08 07:38:43;;;;;;;;;;;;;;;17.14;39.33;101253.44;4969335;27;99824;-65
2023/04/08 07:41:09;;;;;;;;;;;;;;;17.29;39.26;101257.88;4968109;27;128798;-65
2023/04/08 07:43:35;;;;;;;;;;;;;;;17.49;39.11;101248.59;4967829;27;98476;-68
2023/04/08 07:46:04;;;;;;;;;;;;;;;17.78;38.89;101244.91;4936412;27;98183;-67
2023/04/08 07:48:31;;;;;;;;;;;;;;;18.04;38.70;101243.41;4968344;27;98413;-65
2023/04/08 07:50:57;;;;;;;;;;;;;;;18.23;38.81;101251.50;4969500;27;98598;-67
2023/04/08 07:53:26;;;;;;;;;;;;;;;18.39;38.83;101247.44;4967855;27;128399;-68
2023/04/08 07:55:52;;;;;;;;;;;;;;;18.55;38.76;101253.41;4951149;27;98421;-66
2023/04/08 07:58:18;;;;;;;;;;;;;;;18.72;38.53;101257.50;4958072;27;98307;-65
2023/04/08 08:00:44;;;;;;;;;;;;;;;18.76;38.89;101253.03;4966341;27;129478;-68
2023/04/08 08:03:10;;;;;;;;;;;;;;;18.78;38.79;101259.78;4948859;28;127746;-67
2023/04/08 08:05:37;;;;;;;;;;;;;;;18.78;38.83;101259.78;4968108;27;99260;-65
2023/04/08 08:08:03;;;;;;;;;;;;;;;18.84;38.98;101263.25;4960690;27;99202;-68
2023/04/08 08:10:29;;;;;;;;;;;;;;;18.94;38.92;101267.69;4961642;27;99197;-68
2023/04/08 08:12:55;;;;;;;;;;;;;;;19.10;38.80;101271.75;4970544;27;125096;-65
2023/04/08 08:15:20;;;;;;;;;;;;;;;19.24;38.68;101271.72;4970503;27;99478;-65
2023/04/08 08:17:46;;;;;;;;;;;;;;;19.42;38.67;101278.97;4964731;27;128647;-68
2023/04/08 08:20:12;;;;;;;;;;;;;;;19.65;38.59;101276.28;4964708;27;127883;-66
2023/04/08 08:22:38;;;;;;;;;;;;;;;19.78;38.48;101278.19;4965600;27;127269;-68
2023/04/08 08:25:05;;;;;;;;;;;;;;;19.79;38.54;101288.81;4957302;27;121582;-66
2023/04/08 08:27:33;;;;;;;;;;;;;;;19.81;38.69;101291.25;4965957;27;119323;-66
2023/04/08 08:29:59;;;;;;;;;;;;;;;19.80;38.81;101289.63;4967546;27;98697;-68
2023/04/08 08:32:25;;;;;;;;;;;;;;;19.77;38.83;101293.00;4946168;28;128037;-68
2023/04/08 08:34:50;;;;;;;;;;;;;;;19.79;38.87;101294.28;4948210;28;111287;-65
2023/04/08 08:37:16;;;;;;;;;;;;;;;19.83;38.74;101292.56;4950848;27;126192;-68
2023/04/08 08:39:42;;;;;;;;;;;;;;;20.00;38.82;101302.00;4949648;27;128782;-67
2023/04/08 08:42:21;;;;;;;;;;;;;;;20.06;38.62;101300.78;4964832;27;98821;-67
2023/04/08 08:44:47;;;;;;;;;;;;;;;19.94;38.95;101300.53;4966047;27;98470;-67
2023/04/08 08:47:13;;;;;;;;;;;;;;;19.81;39.11;101299.47;4965431;27;98313;-65
2023/04/08 08:49:40;;;;;;;;;;;;;;;19.69;39.31;101307.38;4965643;27;98318;-66
2023/04/08 08:52:06;;;;;;;;;;;;;;;19.48;39.31;101307.00;4968269;27;98388;-67
2023/04/08 08:54:32;;;;;;;;;;;;;;;19.40;39.44;101305.00;4943774;27;121678;-65
2023/04/08 08:56:58;;;;;;;;;;;;;;;19.34;39.63;101307.03;4964774;27;98959;-68
2023/04/08 08:59:24;;;;;;;;;;;;;;;19.24;39.67;101307.25;4955051;27;114987;-65
2023/04/08 09:01:50;;;;;;;;;;;;;;;19.15;39.73;101318.09;4967485;27;98235;-65
2023/04/08 09:04:18;;;;;;;;;;;;;;;19.06;39.70;101319.88;4964509;27;122717;-65
2023/04/08 09:06:46;;;;;;;;;;;;;;;19.02;39.72;101321.63;4954637;27;100275;-65
2023/04/08 09:09:13;;;;;;;;;;;;;;;19.13;39.51;101323.84;4965200;27;98262;-68
2023/04/08 09:11:39;;;;;;;;;;;;;;;19.28;39.39;101325.44;4968115;27;114395;-68
2023/04/08 09:14:26;;;;;;;;;;;;;;;19.53;39.05;101312.34;4947517;28;98682;-67
2023/04/08 09:16:52;;;;;;;;;;;;;;;19.79;38.92;101323.56;4965873;27;98343;-69
2023/04/08 09:19:18;;;;;;;;;;;;;;;19.75;39.12;101330.78;4965265;27;106155;-66
2023/04/08 09:21:43;;;;;;;;;;;;;;;19.71;39.36;101325.09;4967089;27;98050;-67
2023/04/08 09:24:25;;;;;;;;;;;;;;;19.90;39.11;101324.16;4964393;27;98010;-68
2023/04/08 09:26:51;;;;;;;;;;;;;;;19.84;39.02;101328.91;4954463;27;113338;-67
2023/04/08 09:29:17;;;;;;;;;;;;;;;19.72;39.32;101329.44;4964682;27;129307;-67
2023/04/08 09:31:44;;;;;;;;;;;;;;;19.46;39.71;101339.31;4965409;27;125405;-68
2023/04/08 09:34:15;;;;;;;;;;;;;;;19.22;39.86;101342.28;4963305;27;98170;-69
2023/04/08 09:36:41;;;;;;;;;;;;;;;18.99;40.17;101342.16;4963682;27;99318;-66
2023/04/08 09:39:07;;;;;;;;;;;;;;;18.82;40.12;101344.66;4965333;27;98522;-66
2023/04/08 09:41:33;;;;;;;;;;;;;;;18.77;40.21;101351.03;4963861;27;98928;-68
2023/04/08 09:43:59;;;;;;;;;;;;;;;18.79;40.13;101346.09;4951103;28;122833;-69
2023/04/08 09:46:31;;;;;;;;;;;;;;;18.80;39.79;101346.91;4947508;27;127054;-66
2023/04/08 09:49:26;;;;;;;;;;;;;;;18.85;39.94;101349.53;4965330;27;98576;-63
2023/04/08 09:52:12;;;;;;;;;;;;;;;18.94;39.66;101341.44;4949652;27;98882;-63
2023/04/08 09:54:53;;;;;;;;;;;;;;;19.11;39.48;101352.59;4967015;27;98013;-64
2023/04/08 09:57:25;;;;;;;;;;;;;;;19.48;39.25;101346.09;4964784;27;98565;-65
2023/04/08 10:00:00;;;;;;;;;;;;;;;19.72;38.91;101350.53;4928851;27;98781;-66
2023/04/08 10:02:29;;;;;;;;;;;;;;;20.00;38.81;101343.03;4950257;28;98228;-65
2023/04/08 10:04:57;;;;;;;;;;;;;;;19.95;39.02;101346.72;4949673;27;98485;-66
2023/04/08 10:07:23;;;;;;;;;;;;;;;19.99;39.03;101341.44;4947229;27;99064;-66
2023/04/08 10:09:49;;;;;;;;;;;;;;;19.98;39.21;101354.31;4955278;27;98410;-65
2023/04/08 10:12:15;;;;;;;;;;;;;;;19.91;39.21;101355.84;4965831;27;100203;-64
2023/04/08 10:14:40;;;;;;;;;;;;;;;19.76;39.39;101355.06;4945656;27;98023;-64
2023/04/08 10:17:26;;;;;;;;;;;;;;;19.64;39.65;101363.00;4966053;27;128494;-64
2023/04/08 10:19:52;;;;;;;;;;;;;;;19.45;39.97;101367.75;4965828;27;99151;-64
2023/04/08 10:22:33;;;;;;;;;;;;;;;19.34;40.00;101365.25;4932956;27;98421;-65
2023/04/08 10:25:32;;;;;;;;;;;;;;;19.29;39.86;101359.88;4967451;27;98110;-64
2023/04/08 10:28:10;;;;;;;;;;;;;;;19.33;39.82;101366.34;4928126;27;98236;-66
2023/04/08 10:30:40;;;;;;;;;;;;;;;19.29;39.66;101379.00;4965873;27;99045;-65
2023/04/08 10:33:11;;;;;;;;;;;;;;;19.13;39.72;101373.03;4965086;27;99381;-64
2023/04/08 10:35:44;;;;;;;;;;;;;;;18.98;40.09;101389.72;4968300;27;97812;-64
2023/04/08 10:38:12;;;;;;;;;;;;;;;18.83;40.23;101385.34;4967411;27;100666;-66
2023/04/08 10:40:38;;;;;;;;;;;;;;;18.75;40.15;101387.97;4967288;27;98715;-66
2023/04/08 10:43:04;;;;;;;;;;;;;;;18.73;40.19;101395.63;4971014;27;112002;-64
2023/04/08 10:45:30;;;;;;;;;;;;;;;18.75;39.93;101394.22;4962993;27;98043;-65
2023/04/08 10:47:56;;;;;;;;;;;;;;;18.85;39.78;101396.78;4960477;27;102763;-66
2023/04/08 10:50:22;;;;;;;;;;;;;;;19.07;39.70;101398.03;4957905;27;126976;-67
2023/04/08 10:52:49;;;;;;;;;;;;;;;19.39;39.37;101394.41;4967420;27;98623;-67
2023/04/08 10:55:15;;;;;;;;;;;;;;;20.71;37.97;101387.88;4970024;27;99628;-65
2023/04/08 10:57:41;;;;;;;;;;;;;;;20.71;38.17;101390.63;4970891;27;99155;-65
2023/04/08 11:00:11;;;;;;;;;;;;;;;20.78;38.34;101392.91;4950344;27;126472;-66
2023/04/08 11:02:40;;;;;;;;;;;;;;;20.71;38.59;101403.47;4951834;27;101438;-65
2023/04/08 11:05:06;;;;;;;;;;;;;;;20.56;38.83;101402.75;4967710;27;98021;-67
2023/04/08 11:07:33;;;;;;;;;;;;;;;20.51;39.06;101405.59;4940727;27;118095;-65
2023/04/08 11:10:02;;;;;;;;;;;;;;;20.49;39.11;101399.66;4961219;27;100177;-67
2023/04/08 11:12:28;;;;;;;;;;;;;;;20.38;39.25;101406.47;4954397;27;100115;-65
2023/04/08 11:14:54;;;;;;;;;;;;;;;20.28;39.31;101407.53;4970523;27;98248;-66
2023/04/08 11:17:20;;;;;;;;;;;;;;;20.19;39.39;101417.56;4947225;27;127936;-65
2023/04/08 11:19:46;;;;;;;;;;;;;;;20.18;39.47;101417.91;4945563;28;127125;-66
2023/04/08 11:22:12;;;;;;;;;;;;;;;20.06;39.54;101419.25;4949925;27;127229;-65
2023/04/08 11:24:38;;;;;;;;;;;;;;;19.92;39.69;101418.44;4966538;27;99066;-65
2023/04/08 11:27:07;;;;;;;;;;;;;;;19.88;39.70;101416.66;4970772;27;127376;-65
2023/04/08 11:29:33;;;;;;;;;;;;;;;19.94;39.45;101426.38;4956962;28;98046;-66
2023/04/08 11:31:59;;;;;;;;;;;;;;;19.95;39.52;101427.97;4949044;28;126737;-65
2023/04/08 11:34:25;;;;;;;;;;;;;;;20.01;39.42;101427.56;4954566;28;98466;-65
2023/04/08 11:36:51;;;;;;;;;;;;;;;20.08;39.28;101424.41;4968321;27;98997;-67
2023/04/08 11:39:17;;;;;;;;;;;;;;;20.22;39.20;101433.38;4967757;27;119226;-65
2023/04/08 11:41:43;;;;;;;;;;;;;;;20.36;39.24;101430.63;4964091;27;127727;-65
2023/04/08 11:44:09;;;;;;;;;;;;;;;20.45;39.17;101431.47;4969200;27;97877;-65
2023/04/08 11:46:35;;;;;;;;;;;;;;;20.43;38.98;101428.22;4968698;27;128484;-65
2023/04/08 11:49:02;;;;;;;;;;;;;;;20.41;39.31;101435.16;4956434;28;99249;-65
2023/04/08 11:51:28;;;;;;;;;;;;;;;20.39;39.29;101432.72;4969857;27;100843;-67
2023/04/08 11:53:55;;;;;;;;;;;;;;;20.35;39.44;101438.00;4965918;27;105601;-65
2023/04/08 11:56:22;;;;;;;;;;;;;;;20.37;39.40;101431.41;4967679;27;98657;-68
2023/04/08 11:58:48;;;;;;;;;;;;;;;20.43;39.19;101433.69;4968006;27;99044;-68
2023/04/08 12:01:15;;;;;;;;;;;;;;;20.46;39.28;101429.53;4964470;27;109142;-66
2023/04/08 12:03:59;;;;;;;;;;;;;;;20.42;39.31;101439.50;4965905;27;98583;-66
2023/04/08 12:06:26;;;;;;;;;;;;;;;20.32;39.38;101426.88;4969205;27;100152;-66
2023/04/08 12:08:52;;;;;;;;;;;;;;;20.24;39.47;101433.91;4966042;27;98760;-66
2023/04/08 12:11:18;;;;;;;;;;;;;;;20.11;39.61;101443.75;4966558;27;98020;-66
2023/04/08 12:13:44;;;;;;;;;;;;;;;20.04;39.60;101437.06;4948091;27;98216;-66
2023/04/08 12:16:11;;;;;;;;;;;;;;;19.93;39.70;101433.78;4964663;27;98316;-67
2023/04/08 12:18:37;;;;;;;;;;;;;;;19.85;39.98;101440.78;4968457;27;98487;-68
2023/04/08 12:21:03;;;;;;;;;;;;;;;19.77;39.75;101438.75;4940559;27;128002;-66
2023/04/08 12:23:29;;;;;;;;;;;;;;;19.74;39.89;101442.09;4948358;28;122197;-68
2023/04/08 12:25:55;;;;;;;;;;;;;;;19.70;39.97;101440.28;4963591;27;126096;-66
2023/04/08 12:28:21;;;;;;;;;;;;;;;19.66;39.98;101442.81;4964867;27;98123;-66
2023/04/08 12:30:47;;;;;;;;;;;;;;;19.64;40.00;101446.97;4965896;27;125659;-66